sensor_id;sensor_type;location;lat;lon;timestamp;P1;durP1;ratioP1;P2;durP2;ratioP2
39426;SDS011;25938;48.470;1.486;2022-12-10T00:03:42;8.73;;;5.88;;
39426;SDS011;25938;48.470;1.486;2022-12-10T00:06:10;11.77;;;6.30;;
39426;SDS011;25938;48.470;1.486;2022-12-10T00:08:37;9.80;;;6.18;;
39426;SDS011;25938;48.470;1.486;2022-12-10T00:11:03;9.07;;;5.63;;
39426;SDS011;25938;48.470;1.486;2022-12-10T00:13:30;8.40;;;5.38;;
39426;SDS011;25938;48.470;1.486;2022-12-10T00:16:01;9.73;;;6.40;;
39426;SDS011;25938;48.470;1.486;2022-12-10T00:18:27;9.63;;;5.85;;
39426;SDS011;25938;48.470;1.486;2022-12-10T00:20:52;8.75;;;6.05;;
39426;SDS011;25938;48.470;1.486;2022-12-10T00:23:18;8.57;;;5.75;;
39426;SDS011;25938;48.470;1.486;2022-12-10T00:25:44;10.52;;;6.15;;
39426;SDS011;25938;48.470;1.486;2022-12-10T00:28:09;8.55;;;5.82;;
39426;SDS011;25938;48.470;1.486;2022-12-10T00:30:35;9.15;;;5.47;;
39426;SDS011;25938;48.470;1.486;2022-12-10T00:33:01;7.35;;;5.22;;
39426;SDS011;25938;48.470;1.486;2022-12-10T00:35:27;10.25;;;5.40;;
39426;SDS011;25938;48.470;1.486;2022-12-10T00:37:53;6.90;;;5.22;;
39426;SDS011;25938;48.470;1.486;2022-12-10T00:40:18;10.00;;;6.30;;
39426;SDS011;25938;48.470;1.486;2022-12-10T00:42:44;8.98;;;5.78;;
39426;SDS011;25938;48.470;1.486;2022-12-10T00:45:10;11.13;;;5.88;;
39426;SDS011;25938;48.470;1.486;2022-12-10T00:47:35;11.75;;;5.93;;
39426;SDS011;25938;48.470;1.486;2022-12-10T00:50:01;11.30;;;5.97;;
39426;SDS011;25938;48.470;1.486;2022-12-10T00:52:27;8.38;;;5.50;;
39426;SDS011;25938;48.470;1.486;2022-12-10T00:54:52;9.65;;;6.03;;
39426;SDS011;25938;48.470;1.486;2022-12-10T00:57:18;10.73;;;5.90;;
39426;SDS011;25938;48.470;1.486;2022-12-10T00:59:44;7.43;;;4.90;;
39426;SDS011;25938;48.470;1.486;2022-12-10T01:02:09;8.60;;;5.13;;
39426;SDS011;25938;48.470;1.486;2022-12-10T01:04:35;9.48;;;6.22;;
39426;SDS011;25938;48.470;1.486;2022-12-10T01:07:00;9.32;;;5.88;;
39426;SDS011;25938;48.470;1.486;2022-12-10T01:09:27;8.43;;;4.90;;
39426;SDS011;25938;48.470;1.486;2022-12-10T01:11:54;7.30;;;4.85;;
39426;SDS011;25938;48.470;1.486;2022-12-10T01:14:27;9.43;;;5.53;;
39426;SDS011;25938;48.470;1.486;2022-12-10T01:16:59;8.95;;;5.45;;
39426;SDS011;25938;48.470;1.486;2022-12-10T01:19:27;8.32;;;5.88;;
39426;SDS011;25938;48.470;1.486;2022-12-10T01:21:54;8.77;;;5.53;;
39426;SDS011;25938;48.470;1.486;2022-12-10T01:24:21;8.73;;;5.15;;
39426;SDS011;25938;48.470;1.486;2022-12-10T01:26:48;8.10;;;5.05;;
39426;SDS011;25938;48.470;1.486;2022-12-10T01:29:13;8.32;;;5.32;;
39426;SDS011;25938;48.470;1.486;2022-12-10T01:31:40;8.25;;;4.80;;
39426;SDS011;25938;48.470;1.486;2022-12-10T01:34:07;7.47;;;4.63;;
39426;SDS011;25938;48.470;1.486;2022-12-10T01:36:37;8.35;;;5.03;;
39426;SDS011;25938;48.470;1.486;2022-12-10T01:39:05;6.95;;;4.50;;
39426;SDS011;25938;48.470;1.486;2022-12-10T01:41:37;6.60;;;4.07;;
39426;SDS011;25938;48.470;1.486;2022-12-10T01:46:34;6.43;;;4.25;;
39426;SDS011;25938;48.470;1.486;2022-12-10T01:49:01;7.05;;;4.65;;
39426;SDS011;25938;48.470;1.486;2022-12-10T01:51:31;8.02;;;4.38;;
39426;SDS011;25938;48.470;1.486;2022-12-10T01:53:58;8.93;;;5.15;;
39426;SDS011;25938;48.470;1.486;2022-12-10T01:56:25;8.65;;;4.78;;
39426;SDS011;25938;48.470;1.486;2022-12-10T01:58:51;7.95;;;5.03;;
39426;SDS011;25938;48.470;1.486;2022-12-10T02:09:32;7.55;;;4.70;;
39426;SDS011;25938;48.470;1.486;2022-12-10T02:12:27;8.05;;;4.88;;
39426;SDS011;25938;48.470;1.486;2022-12-10T02:17:38;8.88;;;4.72;;
39426;SDS011;25938;48.470;1.486;2022-12-10T02:22:49;8.02;;;4.60;;
39426;SDS011;25938;48.470;1.486;2022-12-10T02:25:24;7.38;;;4.63;;
39426;SDS011;25938;48.470;1.486;2022-12-10T02:28:10;10.13;;;5.05;;
39426;SDS011;25938;48.470;1.486;2022-12-10T02:30:38;8.68;;;5.03;;
39426;SDS011;25938;48.470;1.486;2022-12-10T02:33:06;8.75;;;5.18;;
39426;SDS011;25938;48.470;1.486;2022-12-10T02:35:33;10.57;;;5.28;;
39426;SDS011;25938;48.470;1.486;2022-12-10T02:38:05;8.88;;;5.10;;
39426;SDS011;25938;48.470;1.486;2022-12-10T02:40:42;8.68;;;5.25;;
39426;SDS011;25938;48.470;1.486;2022-12-10T02:43:12;9.98;;;5.05;;
39426;SDS011;25938;48.470;1.486;2022-12-10T02:45:39;10.02;;;5.20;;
39426;SDS011;25938;48.470;1.486;2022-12-10T02:48:07;7.50;;;4.47;;
39426;SDS011;25938;48.470;1.486;2022-12-10T02:50:34;8.50;;;5.15;;
39426;SDS011;25938;48.470;1.486;2022-12-10T02:53:00;9.50;;;5.07;;
39426;SDS011;25938;48.470;1.486;2022-12-10T02:55:26;9.18;;;5.07;;
39426;SDS011;25938;48.470;1.486;2022-12-10T02:58:54;8.82;;;5.45;;
39426;SDS011;25938;48.470;1.486;2022-12-10T03:01:22;9.90;;;5.07;;
39426;SDS011;25938;48.470;1.486;2022-12-10T03:04:00;8.50;;;4.78;;
39426;SDS011;25938;48.470;1.486;2022-12-10T03:06:36;8.90;;;5.55;;
39426;SDS011;25938;48.470;1.486;2022-12-10T03:09:12;10.85;;;5.20;;
39426;SDS011;25938;48.470;1.486;2022-12-10T03:11:44;10.23;;;5.25;;
39426;SDS011;25938;48.470;1.486;2022-12-10T03:14:14;8.98;;;4.70;;
39426;SDS011;25938;48.470;1.486;2022-12-10T03:16:47;11.18;;;5.38;;
39426;SDS011;25938;48.470;1.486;2022-12-10T03:19:17;9.68;;;5.47;;
39426;SDS011;25938;48.470;1.486;2022-12-10T03:21:46;9.63;;;5.18;;
39426;SDS011;25938;48.470;1.486;2022-12-10T03:24:14;8.70;;;4.80;;
39426;SDS011;25938;48.470;1.486;2022-12-10T03:26:42;9.85;;;4.50;;
39426;SDS011;25938;48.470;1.486;2022-12-10T03:29:21;7.78;;;4.57;;
39426;SDS011;25938;48.470;1.486;2022-12-10T03:31:51;8.60;;;4.65;;
39426;SDS011;25938;48.470;1.486;2022-12-10T03:34:18;9.35;;;5.30;;
39426;SDS011;25938;48.470;1.486;2022-12-10T03:36:45;8.80;;;5.40;;
39426;SDS011;25938;48.470;1.486;2022-12-10T03:39:11;9.25;;;4.88;;
39426;SDS011;25938;48.470;1.486;2022-12-10T03:41:37;7.15;;;4.25;;
39426;SDS011;25938;48.470;1.486;2022-12-10T03:44:03;8.07;;;4.13;;
39426;SDS011;25938;48.470;1.486;2022-12-10T03:46:29;7.57;;;4.30;;
39426;SDS011;25938;48.470;1.486;2022-12-10T03:48:56;10.07;;;5.47;;
39426;SDS011;25938;48.470;1.486;2022-12-10T03:51:23;7.88;;;4.35;;
39426;SDS011;25938;48.470;1.486;2022-12-10T03:53:48;6.38;;;4.60;;
39426;SDS011;25938;48.470;1.486;2022-12-10T03:56:15;6.32;;;4.15;;
39426;SDS011;25938;48.470;1.486;2022-12-10T03:58:41;9.02;;;4.47;;
39426;SDS011;25938;48.470;1.486;2022-12-10T04:01:07;9.32;;;4.45;;
39426;SDS011;25938;48.470;1.486;2022-12-10T04:03:40;6.78;;;4.50;;
39426;SDS011;25938;48.470;1.486;2022-12-10T04:06:07;8.40;;;5.13;;
39426;SDS011;25938;48.470;1.486;2022-12-10T04:08:35;8.38;;;4.15;;
39426;SDS011;25938;48.470;1.486;2022-12-10T04:11:04;5.60;;;3.58;;
39426;SDS011;25938;48.470;1.486;2022-12-10T04:13:36;9.23;;;4.97;;
39426;SDS011;25938;48.470;1.486;2022-12-10T04:16:21;10.27;;;4.72;;
39426;SDS011;25938;48.470;1.486;2022-12-10T04:19:07;6.60;;;4.07;;
39426;SDS011;25938;48.470;1.486;2022-12-10T04:21:35;11.85;;;5.68;;
39426;SDS011;25938;48.470;1.486;2022-12-10T04:24:22;9.32;;;4.78;;
39426;SDS011;25938;48.470;1.486;2022-12-10T04:27:09;7.88;;;4.05;;
39426;SDS011;25938;48.470;1.486;2022-12-10T04:29:41;9.35;;;5.00;;
39426;SDS011;25938;48.470;1.486;2022-12-10T04:32:07;8.43;;;4.50;;
39426;SDS011;25938;48.470;1.486;2022-12-10T04:34:33;9.13;;;4.80;;
39426;SDS011;25938;48.470;1.486;2022-12-10T04:36:59;8.90;;;4.43;;
39426;SDS011;25938;48.470;1.486;2022-12-10T04:39:25;6.45;;;4.72;;
39426;SDS011;25938;48.470;1.486;2022-12-10T04:41:51;10.43;;;5.38;;
39426;SDS011;25938;48.470;1.486;2022-12-10T04:44:17;9.25;;;4.25;;
39426;SDS011;25938;48.470;1.486;2022-12-10T04:46:43;8.48;;;3.88;;
39426;SDS011;25938;48.470;1.486;2022-12-10T04:49:10;9.00;;;3.90;;
39426;SDS011;25938;48.470;1.486;2022-12-10T04:51:35;7.60;;;4.60;;
39426;SDS011;25938;48.470;1.486;2022-12-10T04:54:01;7.00;;;3.40;;
39426;SDS011;25938;48.470;1.486;2022-12-10T04:56:28;6.53;;;4.10;;
39426;SDS011;25938;48.470;1.486;2022-12-10T04:58:57;7.57;;;3.72;;
39426;SDS011;25938;48.470;1.486;2022-12-10T05:01:23;4.53;;;3.20;;
39426;SDS011;25938;48.470;1.486;2022-12-10T05:03:48;8.23;;;4.78;;
39426;SDS011;25938;48.470;1.486;2022-12-10T05:06:15;4.95;;;3.08;;
39426;SDS011;25938;48.470;1.486;2022-12-10T05:08:42;6.68;;;3.42;;
39426;SDS011;25938;48.470;1.486;2022-12-10T05:11:12;8.10;;;3.67;;
39426;SDS011;25938;48.470;1.486;2022-12-10T05:13:40;5.55;;;3.05;;
39426;SDS011;25938;48.470;1.486;2022-12-10T05:16:07;6.25;;;3.42;;
39426;SDS011;25938;48.470;1.486;2022-12-10T05:18:34;6.00;;;3.50;;
39426;SDS011;25938;48.470;1.486;2022-12-10T05:21:01;6.32;;;2.78;;
39426;SDS011;25938;48.470;1.486;2022-12-10T05:23:29;4.45;;;3.97;;
39426;SDS011;25938;48.470;1.486;2022-12-10T05:25:58;6.93;;;3.70;;
39426;SDS011;25938;48.470;1.486;2022-12-10T05:28:24;4.72;;;2.63;;
39426;SDS011;25938;48.470;1.486;2022-12-10T05:30:50;4.03;;;2.92;;
39426;SDS011;25938;48.470;1.486;2022-12-10T05:33:16;4.53;;;2.78;;
39426;SDS011;25938;48.470;1.486;2022-12-10T05:35:42;4.82;;;3.10;;
39426;SDS011;25938;48.470;1.486;2022-12-10T05:38:07;3.50;;;2.40;;
39426;SDS011;25938;48.470;1.486;2022-12-10T05:40:35;3.50;;;2.10;;
39426;SDS011;25938;48.470;1.486;2022-12-10T05:43:02;4.28;;;2.55;;
39426;SDS011;25938;48.470;1.486;2022-12-10T05:45:28;6.38;;;3.10;;
39426;SDS011;25938;48.470;1.486;2022-12-10T05:47:53;3.75;;;2.15;;
39426;SDS011;25938;48.470;1.486;2022-12-10T05:50:19;4.07;;;2.60;;
39426;SDS011;25938;48.470;1.486;2022-12-10T05:52:44;5.65;;;2.75;;
39426;SDS011;25938;48.470;1.486;2022-12-10T05:55:10;4.43;;;2.42;;
39426;SDS011;25938;48.470;1.486;2022-12-10T05:57:36;5.13;;;2.72;;
39426;SDS011;25938;48.470;1.486;2022-12-10T06:00:03;4.03;;;2.22;;
39426;SDS011;25938;48.470;1.486;2022-12-10T06:02:32;4.03;;;2.50;;
39426;SDS011;25938;48.470;1.486;2022-12-10T06:04:58;3.97;;;2.40;;
39426;SDS011;25938;48.470;1.486;2022-12-10T06:07:23;4.85;;;2.78;;
39426;SDS011;25938;48.470;1.486;2022-12-10T06:09:49;6.00;;;2.38;;
39426;SDS011;25938;48.470;1.486;2022-12-10T06:12:15;4.90;;;2.78;;
39426;SDS011;25938;48.470;1.486;2022-12-10T06:14:41;4.97;;;2.25;;
39426;SDS011;25938;48.470;1.486;2022-12-10T06:17:06;3.25;;;2.45;;
39426;SDS011;25938;48.470;1.486;2022-12-10T06:19:32;4.63;;;2.63;;
39426;SDS011;25938;48.470;1.486;2022-12-10T06:21:58;3.13;;;2.25;;
39426;SDS011;25938;48.470;1.486;2022-12-10T06:24:24;4.30;;;2.33;;
39426;SDS011;25938;48.470;1.486;2022-12-10T06:26:50;4.15;;;2.22;;
39426;SDS011;25938;48.470;1.486;2022-12-10T06:29:16;4.38;;;2.22;;
39426;SDS011;25938;48.470;1.486;2022-12-10T06:31:42;3.22;;;2.13;;
39426;SDS011;25938;48.470;1.486;2022-12-10T06:34:08;4.70;;;2.70;;
39426;SDS011;25938;48.470;1.486;2022-12-10T06:36:34;3.90;;;2.28;;
39426;SDS011;25938;48.470;1.486;2022-12-10T06:39:00;4.50;;;2.10;;
39426;SDS011;25938;48.470;1.486;2022-12-10T06:41:25;5.70;;;3.80;;
39426;SDS011;25938;48.470;1.486;2022-12-10T06:43:51;6.85;;;3.67;;
39426;SDS011;25938;48.470;1.486;2022-12-10T06:46:18;3.95;;;2.42;;
39426;SDS011;25938;48.470;1.486;2022-12-10T06:48:45;5.18;;;2.80;;
39426;SDS011;25938;48.470;1.486;2022-12-10T06:51:11;3.13;;;2.20;;
39426;SDS011;25938;48.470;1.486;2022-12-10T06:53:38;4.60;;;2.85;;
39426;SDS011;25938;48.470;1.486;2022-12-10T06:56:04;5.07;;;2.42;;
39426;SDS011;25938;48.470;1.486;2022-12-10T06:58:32;4.15;;;2.60;;
39426;SDS011;25938;48.470;1.486;2022-12-10T07:01:06;4.78;;;3.08;;
39426;SDS011;25938;48.470;1.486;2022-12-10T07:03:33;5.90;;;2.65;;
39426;SDS011;25938;48.470;1.486;2022-12-10T07:06:00;4.97;;;2.97;;
39426;SDS011;25938;48.470;1.486;2022-12-10T07:08:26;5.40;;;2.78;;
39426;SDS011;25938;48.470;1.486;2022-12-10T07:10:52;5.75;;;2.88;;
39426;SDS011;25938;48.470;1.486;2022-12-10T07:13:18;4.97;;;2.75;;
39426;SDS011;25938;48.470;1.486;2022-12-10T07:15:43;3.63;;;2.13;;
39426;SDS011;25938;48.470;1.486;2022-12-10T07:18:09;4.53;;;2.42;;
39426;SDS011;25938;48.470;1.486;2022-12-10T07:20:34;5.70;;;3.38;;
39426;SDS011;25938;48.470;1.486;2022-12-10T07:23:00;5.28;;;3.00;;
39426;SDS011;25938;48.470;1.486;2022-12-10T07:25:26;6.88;;;3.80;;
39426;SDS011;25938;48.470;1.486;2022-12-10T07:27:51;5.20;;;2.88;;
39426;SDS011;25938;48.470;1.486;2022-12-10T07:30:17;4.57;;;2.47;;
39426;SDS011;25938;48.470;1.486;2022-12-10T07:32:42;4.75;;;3.15;;
39426;SDS011;25938;48.470;1.486;2022-12-10T07:35:08;4.18;;;2.78;;
39426;SDS011;25938;48.470;1.486;2022-12-10T07:37:34;4.90;;;3.50;;
39426;SDS011;25938;48.470;1.486;2022-12-10T07:39:59;6.30;;;3.35;;
39426;SDS011;25938;48.470;1.486;2022-12-10T07:42:25;5.07;;;2.80;;
39426;SDS011;25938;48.470;1.486;2022-12-10T07:44:51;6.35;;;3.63;;
39426;SDS011;25938;48.470;1.486;2022-12-10T07:47:16;6.75;;;4.05;;
39426;SDS011;25938;48.470;1.486;2022-12-10T07:49:42;5.03;;;3.00;;
39426;SDS011;25938;48.470;1.486;2022-12-10T07:52:08;6.10;;;3.20;;
39426;SDS011;25938;48.470;1.486;2022-12-10T07:54:33;6.05;;;2.97;;
39426;SDS011;25938;48.470;1.486;2022-12-10T07:56:59;7.10;;;3.28;;
39426;SDS011;25938;48.470;1.486;2022-12-10T07:59:25;6.72;;;3.28;;
39426;SDS011;25938;48.470;1.486;2022-12-10T08:01:51;4.28;;;3.13;;
39426;SDS011;25938;48.470;1.486;2022-12-10T08:04:16;5.43;;;3.22;;
39426;SDS011;25938;48.470;1.486;2022-12-10T08:06:42;5.68;;;3.30;;
39426;SDS011;25938;48.470;1.486;2022-12-10T08:09:08;6.82;;;3.33;;
39426;SDS011;25938;48.470;1.486;2022-12-10T08:11:35;4.65;;;2.83;;
39426;SDS011;25938;48.470;1.486;2022-12-10T08:14:01;5.72;;;2.92;;
39426;SDS011;25938;48.470;1.486;2022-12-10T08:16:27;5.70;;;2.80;;
39426;SDS011;25938;48.470;1.486;2022-12-10T08:18:56;5.05;;;2.78;;
39426;SDS011;25938;48.470;1.486;2022-12-10T08:21:25;5.03;;;2.50;;
39426;SDS011;25938;48.470;1.486;2022-12-10T08:23:52;5.60;;;2.60;;
39426;SDS011;25938;48.470;1.486;2022-12-10T08:26:20;4.55;;;2.78;;
39426;SDS011;25938;48.470;1.486;2022-12-10T08:28:49;5.65;;;2.83;;
39426;SDS011;25938;48.470;1.486;2022-12-10T08:31:16;4.25;;;2.47;;
39426;SDS011;25938;48.470;1.486;2022-12-10T08:33:43;4.07;;;2.22;;
39426;SDS011;25938;48.470;1.486;2022-12-10T08:36:10;7.35;;;3.83;;
39426;SDS011;25938;48.470;1.486;2022-12-10T08:38:38;7.43;;;4.78;;
39426;SDS011;25938;48.470;1.486;2022-12-10T08:41:08;9.02;;;3.80;;
39426;SDS011;25938;48.470;1.486;2022-12-10T08:43:37;7.22;;;4.60;;
39426;SDS011;25938;48.470;1.486;2022-12-10T08:46:03;5.78;;;3.83;;
39426;SDS011;25938;48.470;1.486;2022-12-10T08:48:30;6.07;;;3.60;;
39426;SDS011;25938;48.470;1.486;2022-12-10T08:50:55;6.18;;;3.38;;
39426;SDS011;25938;48.470;1.486;2022-12-10T08:53:21;10.13;;;4.50;;
39426;SDS011;25938;48.470;1.486;2022-12-10T08:55:49;5.32;;;3.08;;
39426;SDS011;25938;48.470;1.486;2022-12-10T08:58:18;6.35;;;3.35;;
39426;SDS011;25938;48.470;1.486;2022-12-10T09:00:45;7.13;;;3.47;;
39426;SDS011;25938;48.470;1.486;2022-12-10T09:03:12;5.20;;;3.55;;
39426;SDS011;25938;48.470;1.486;2022-12-10T09:05:37;7.68;;;4.35;;
39426;SDS011;25938;48.470;1.486;2022-12-10T09:08:03;8.07;;;4.55;;
39426;SDS011;25938;48.470;1.486;2022-12-10T09:10:29;6.40;;;3.60;;
39426;SDS011;25938;48.470;1.486;2022-12-10T09:12:55;7.40;;;3.85;;
39426;SDS011;25938;48.470;1.486;2022-12-10T09:15:20;3.80;;;2.95;;
39426;SDS011;25938;48.470;1.486;2022-12-10T09:17:46;4.10;;;2.72;;
39426;SDS011;25938;48.470;1.486;2022-12-10T09:20:11;5.53;;;2.88;;
39426;SDS011;25938;48.470;1.486;2022-12-10T09:22:38;6.00;;;4.07;;
39426;SDS011;25938;48.470;1.486;2022-12-10T09:25:07;6.35;;;2.92;;
39426;SDS011;25938;48.470;1.486;2022-12-10T09:27:40;3.65;;;1.95;;
39426;SDS011;25938;48.470;1.486;2022-12-10T09:30:06;5.30;;;2.72;;
39426;SDS011;25938;48.470;1.486;2022-12-10T09:32:32;4.25;;;2.92;;
39426;SDS011;25938;48.470;1.486;2022-12-10T09:34:58;2.55;;;2.30;;
39426;SDS011;25938;48.470;1.486;2022-12-10T09:37:23;4.50;;;3.25;;
39426;SDS011;25938;48.470;1.486;2022-12-10T09:39:49;5.35;;;2.15;;
39426;SDS011;25938;48.470;1.486;2022-12-10T09:44:57;4.95;;;2.25;;
39426;SDS011;25938;48.470;1.486;2022-12-10T09:47:35;3.40;;;2.33;;
39426;SDS011;25938;48.470;1.486;2022-12-10T09:52:36;4.22;;;2.47;;
39426;SDS011;25938;48.470;1.486;2022-12-10T09:55:20;2.25;;;1.98;;
39426;SDS011;25938;48.470;1.486;2022-12-10T09:57:54;3.25;;;2.53;;
39426;SDS011;25938;48.470;1.486;2022-12-10T10:00:29;3.25;;;1.92;;
39426;SDS011;25938;48.470;1.486;2022-12-10T10:03:01;5.15;;;2.15;;
39426;SDS011;25938;48.470;1.486;2022-12-10T10:05:28;5.10;;;2.63;;
39426;SDS011;25938;48.470;1.486;2022-12-10T10:08:04;3.50;;;1.95;;
39426;SDS011;25938;48.470;1.486;2022-12-10T10:10:37;3.65;;;2.22;;
39426;SDS011;25938;48.470;1.486;2022-12-10T10:15:34;3.95;;;2.20;;
39426;SDS011;25938;48.470;1.486;2022-12-10T10:18:45;4.93;;;2.42;;
39426;SDS011;25938;48.470;1.486;2022-12-10T10:21:03;2.95;;;2.03;;
39426;SDS011;25938;48.470;1.486;2022-12-10T10:23:39;3.90;;;2.58;;
39426;SDS011;25938;48.470;1.486;2022-12-10T10:26:07;5.03;;;2.70;;
39426;SDS011;25938;48.470;1.486;2022-12-10T10:28:33;3.17;;;2.28;;
39426;SDS011;25938;48.470;1.486;2022-12-10T10:30:58;3.03;;;2.33;;
39426;SDS011;25938;48.470;1.486;2022-12-10T10:33:24;3.72;;;2.30;;
39426;SDS011;25938;48.470;1.486;2022-12-10T10:35:54;4.50;;;2.63;;
39426;SDS011;25938;48.470;1.486;2022-12-10T10:38:24;5.07;;;2.22;;
39426;SDS011;25938;48.470;1.486;2022-12-10T10:40:56;4.40;;;2.97;;
39426;SDS011;25938;48.470;1.486;2022-12-10T10:43:28;3.72;;;3.10;;
39426;SDS011;25938;48.470;1.486;2022-12-10T10:46:01;3.22;;;2.38;;
39426;SDS011;25938;48.470;1.486;2022-12-10T10:48:29;3.38;;;2.90;;
39426;SDS011;25938;48.470;1.486;2022-12-10T10:53:51;5.10;;;2.63;;
39426;SDS011;25938;48.470;1.486;2022-12-10T10:56:21;2.50;;;2.28;;
39426;SDS011;25938;48.470;1.486;2022-12-10T11:01:26;4.63;;;3.45;;
39426;SDS011;25938;48.470;1.486;2022-12-10T11:04:07;3.95;;;2.70;;
39426;SDS011;25938;48.470;1.486;2022-12-10T11:06:33;4.72;;;2.90;;
39426;SDS011;25938;48.470;1.486;2022-12-10T11:08:59;4.18;;;3.10;;
39426;SDS011;25938;48.470;1.486;2022-12-10T11:14:22;5.57;;;3.33;;
39426;SDS011;25938;48.470;1.486;2022-12-10T11:16:49;3.42;;;3.05;;
39426;SDS011;25938;48.470;1.486;2022-12-10T11:19:21;4.00;;;2.67;;
39426;SDS011;25938;48.470;1.486;2022-12-10T11:21:48;4.15;;;2.90;;
39426;SDS011;25938;48.470;1.486;2022-12-10T11:24:15;3.42;;;2.55;;
39426;SDS011;25938;48.470;1.486;2022-12-10T11:29:34;5.53;;;3.33;;
39426;SDS011;25938;48.470;1.486;2022-12-10T11:32:40;5.32;;;2.70;;
39426;SDS011;25938;48.470;1.486;2022-12-10T11:49:38;6.40;;;2.97;;
39426;SDS011;25938;48.470;1.486;2022-12-10T11:55:10;3.25;;;2.45;;
39426;SDS011;25938;48.470;1.486;2022-12-10T11:57:52;2.65;;;2.40;;
39426;SDS011;25938;48.470;1.486;2022-12-10T12:00:45;6.90;;;2.35;;
39426;SDS011;25938;48.470;1.486;2022-12-10T12:12:35;4.93;;;3.13;;
39426;SDS011;25938;48.470;1.486;2022-12-10T12:15:19;4.63;;;2.67;;
39426;SDS011;25938;48.470;1.486;2022-12-10T12:17:57;6.47;;;2.47;;
39426;SDS011;25938;48.470;1.486;2022-12-10T12:20:37;4.18;;;2.70;;
39426;SDS011;25938;48.470;1.486;2022-12-10T12:25:54;3.65;;;2.28;;
39426;SDS011;25938;48.470;1.486;2022-12-10T12:28:27;4.88;;;2.70;;
39426;SDS011;25938;48.470;1.486;2022-12-10T12:31:08;4.60;;;3.30;;
39426;SDS011;25938;48.470;1.486;2022-12-10T12:33:54;5.05;;;2.50;;
39426;SDS011;25938;48.470;1.486;2022-12-10T12:36:27;5.10;;;2.60;;
39426;SDS011;25938;48.470;1.486;2022-12-10T12:39:02;5.22;;;2.35;;
39426;SDS011;25938;48.470;1.486;2022-12-10T12:42:18;5.28;;;2.75;;
39426;SDS011;25938;48.470;1.486;2022-12-10T12:50:04;4.55;;;2.35;;
39426;SDS011;25938;48.470;1.486;2022-12-10T12:52:37;2.60;;;2.40;;
39426;SDS011;25938;48.470;1.486;2022-12-10T12:57:45;3.30;;;2.17;;
39426;SDS011;25938;48.470;1.486;2022-12-10T13:00:18;2.80;;;2.30;;
39426;SDS011;25938;48.470;1.486;2022-12-10T13:05:54;3.90;;;2.60;;
39426;SDS011;25938;48.470;1.486;2022-12-10T13:16:43;5.47;;;2.22;;
39426;SDS011;25938;48.470;1.486;2022-12-10T13:24:20;5.93;;;3.25;;
39426;SDS011;25938;48.470;1.486;2022-12-10T13:29:55;4.22;;;3.00;;
39426;SDS011;25938;48.470;1.486;2022-12-10T13:37:35;4.75;;;3.28;;
39426;SDS011;25938;48.470;1.486;2022-12-10T13:42:33;5.70;;;3.13;;
39426;SDS011;25938;48.470;1.486;2022-12-10T13:47:52;5.57;;;3.42;;
39426;SDS011;25938;48.470;1.486;2022-12-10T13:53:16;5.32;;;2.90;;
39426;SDS011;25938;48.470;1.486;2022-12-10T14:09:15;4.43;;;2.80;;
39426;SDS011;25938;48.470;1.486;2022-12-10T14:14:15;5.28;;;3.40;;
39426;SDS011;25938;48.470;1.486;2022-12-10T14:16:55;3.90;;;2.80;;
39426;SDS011;25938;48.470;1.486;2022-12-10T14:19:21;3.58;;;2.50;;
39426;SDS011;25938;48.470;1.486;2022-12-10T14:21:51;3.40;;;2.63;;
39426;SDS011;25938;48.470;1.486;2022-12-10T14:24:51;4.28;;;2.45;;
39426;SDS011;25938;48.470;1.486;2022-12-10T14:27:13;4.30;;;3.05;;
39426;SDS011;25938;48.470;1.486;2022-12-10T14:29:49;3.55;;;2.40;;
39426;SDS011;25938;48.470;1.486;2022-12-10T14:32:19;2.60;;;2.28;;
39426;SDS011;25938;48.470;1.486;2022-12-10T14:34:54;3.15;;;2.00;;
39426;SDS011;25938;48.470;1.486;2022-12-10T14:37:26;2.78;;;2.22;;
39426;SDS011;25938;48.470;1.486;2022-12-10T14:39:54;5.40;;;2.25;;
39426;SDS011;25938;48.470;1.486;2022-12-10T14:42:20;4.30;;;2.45;;
39426;SDS011;25938;48.470;1.486;2022-12-10T14:44:49;7.55;;;2.63;;
39426;SDS011;25938;48.470;1.486;2022-12-10T14:47:22;3.60;;;1.98;;
39426;SDS011;25938;48.470;1.486;2022-12-10T14:49:48;4.72;;;2.97;;
39426;SDS011;25938;48.470;1.486;2022-12-10T14:52:30;4.63;;;2.15;;
39426;SDS011;25938;48.470;1.486;2022-12-10T14:54:57;4.50;;;2.38;;
39426;SDS011;25938;48.470;1.486;2022-12-10T14:57:43;3.78;;;2.50;;
39426;SDS011;25938;48.470;1.486;2022-12-10T15:00:15;2.45;;;2.00;;
39426;SDS011;25938;48.470;1.486;2022-12-10T15:02:53;3.97;;;2.38;;
39426;SDS011;25938;48.470;1.486;2022-12-10T15:05:24;5.88;;;4.05;;
39426;SDS011;25938;48.470;1.486;2022-12-10T15:07:56;4.57;;;2.25;;
39426;SDS011;25938;48.470;1.486;2022-12-10T15:10:26;4.07;;;2.40;;
39426;SDS011;25938;48.470;1.486;2022-12-10T15:12:55;4.25;;;3.08;;
39426;SDS011;25938;48.470;1.486;2022-12-10T15:15:27;4.28;;;2.33;;
39426;SDS011;25938;48.470;1.486;2022-12-10T15:18:01;2.97;;;2.58;;
39426;SDS011;25938;48.470;1.486;2022-12-10T15:25:58;4.38;;;2.78;;
39426;SDS011;25938;48.470;1.486;2022-12-10T15:30:57;4.00;;;2.63;;
39426;SDS011;25938;48.470;1.486;2022-12-10T15:33:54;3.55;;;2.65;;
39426;SDS011;25938;48.470;1.486;2022-12-10T15:36:37;3.75;;;2.47;;
39426;SDS011;25938;48.470;1.486;2022-12-10T15:41:41;2.80;;;2.30;;
39426;SDS011;25938;48.470;1.486;2022-12-10T15:44:19;3.03;;;2.38;;
39426;SDS011;25938;48.470;1.486;2022-12-10T15:46:57;3.75;;;2.88;;
39426;SDS011;25938;48.470;1.486;2022-12-10T15:49:24;3.75;;;2.75;;
39426;SDS011;25938;48.470;1.486;2022-12-10T15:51:49;4.50;;;2.70;;
39426;SDS011;25938;48.470;1.486;2022-12-10T15:54:32;3.40;;;2.35;;
39426;SDS011;25938;48.470;1.486;2022-12-10T15:56:59;3.85;;;2.70;;
39426;SDS011;25938;48.470;1.486;2022-12-10T15:59:29;6.15;;;3.30;;
39426;SDS011;25938;48.470;1.486;2022-12-10T16:01:55;7.90;;;4.00;;
39426;SDS011;25938;48.470;1.486;2022-12-10T16:04:21;8.98;;;4.22;;
39426;SDS011;25938;48.470;1.486;2022-12-10T16:06:47;10.63;;;5.63;;
39426;SDS011;25938;48.470;1.486;2022-12-10T16:09:13;11.48;;;4.63;;
39426;SDS011;25938;48.470;1.486;2022-12-10T16:11:39;9.98;;;5.07;;
39426;SDS011;25938;48.470;1.486;2022-12-10T16:14:05;9.27;;;4.85;;
39426;SDS011;25938;48.470;1.486;2022-12-10T16:16:31;10.82;;;5.45;;
39426;SDS011;25938;48.470;1.486;2022-12-10T16:18:57;10.07;;;5.28;;
39426;SDS011;25938;48.470;1.486;2022-12-10T16:21:23;9.60;;;5.20;;
39426;SDS011;25938;48.470;1.486;2022-12-10T16:23:48;7.55;;;5.40;;
39426;SDS011;25938;48.470;1.486;2022-12-10T16:26:18;11.20;;;5.00;;
39426;SDS011;25938;48.470;1.486;2022-12-10T16:28:46;8.23;;;4.80;;
39426;SDS011;25938;48.470;1.486;2022-12-10T16:31:17;15.20;;;4.95;;
39426;SDS011;25938;48.470;1.486;2022-12-10T16:33:44;9.50;;;4.95;;
39426;SDS011;25938;48.470;1.486;2022-12-10T16:36:12;6.97;;;4.07;;
39426;SDS011;25938;48.470;1.486;2022-12-10T16:38:38;6.63;;;4.15;;
39426;SDS011;25938;48.470;1.486;2022-12-10T16:41:09;7.25;;;4.28;;
39426;SDS011;25938;48.470;1.486;2022-12-10T16:43:48;5.28;;;3.78;;
39426;SDS011;25938;48.470;1.486;2022-12-10T16:46:14;8.20;;;4.18;;
39426;SDS011;25938;48.470;1.486;2022-12-10T16:48:39;11.25;;;5.15;;
39426;SDS011;25938;48.470;1.486;2022-12-10T16:51:09;8.52;;;5.13;;
39426;SDS011;25938;48.470;1.486;2022-12-10T16:53:43;6.07;;;4.75;;
39426;SDS011;25938;48.470;1.486;2022-12-10T16:56:13;12.63;;;6.20;;
39426;SDS011;25938;48.470;1.486;2022-12-10T16:58:40;10.73;;;5.78;;
39426;SDS011;25938;48.470;1.486;2022-12-10T17:01:12;13.80;;;5.47;;
39426;SDS011;25938;48.470;1.486;2022-12-10T17:06:16;9.70;;;6.03;;
39426;SDS011;25938;48.470;1.486;2022-12-10T17:08:43;9.60;;;4.85;;
39426;SDS011;25938;48.470;1.486;2022-12-10T17:11:19;6.80;;;4.55;;
39426;SDS011;25938;48.470;1.486;2022-12-10T17:14:09;8.25;;;4.80;;
39426;SDS011;25938;48.470;1.486;2022-12-10T17:16:49;9.73;;;5.30;;